createdAt,value
2017-11-08T00:02:21.252Z,7.73
2017-11-08T00:04:47.465Z,8.70
2017-11-08T00:07:14.431Z,7.87
2017-11-08T00:09:41.362Z,9.30
2017-11-08T00:12:09.194Z,7.37
2017-11-08T00:14:35.366Z,7.63
2017-11-08T00:17:02.289Z,8.60
2017-11-08T00:19:29.389Z,8.17
2017-11-08T00:21:56.294Z,8.10
2017-11-08T00:24:22.493Z,8.20
2017-11-08T00:26:48.710Z,8.10
2017-11-08T00:29:15.631Z,7.97
2017-11-08T00:31:41.817Z,8.37
2017-11-08T00:34:08.869Z,7.27
2017-11-08T00:36:35.054Z,8.70
2017-11-08T00:39:01.261Z,6.83
2017-11-08T00:41:27.492Z,6.47
2017-11-08T00:43:53.688Z,7.33
2017-11-08T00:46:19.936Z,6.80
2017-11-08T00:48:46.149Z,9.00
2017-11-08T00:51:12.346Z,6.87
2017-11-08T00:53:38.546Z,7.67
2017-11-08T00:56:05.615Z,7.60
2017-11-08T00:58:31.786Z,7.47
2017-11-08T01:00:58.718Z,7.43
2017-11-08T01:03:25.757Z,7.63
2017-11-08T01:05:51.936Z,8.10
2017-11-08T01:08:18.862Z,7.33
2017-11-08T01:10:45.158Z,8.13
2017-11-08T01:13:11.322Z,7.87
2017-11-08T01:15:37.497Z,6.73
2017-11-08T01:18:03.699Z,7.53
2017-11-08T01:20:30.633Z,7.67
2017-11-08T01:22:56.822Z,8.20
2017-11-08T01:25:23.826Z,7.90
2017-11-08T01:27:50.030Z,7.63
2017-11-08T01:30:16.213Z,7.33
2017-11-08T01:32:44.043Z,8.10
2017-11-08T01:35:10.227Z,7.30
2017-11-08T01:37:38.972Z,7.90
2017-11-08T01:40:10.019Z,7.57
2017-11-08T01:42:36.202Z,7.60
2017-11-08T01:45:02.404Z,7.57
2017-11-08T01:47:28.913Z,7.37
2017-11-08T01:49:55.083Z,7.80
2017-11-08T01:52:21.245Z,8.70
2017-11-08T01:54:48.178Z,9.57
2017-11-08T01:57:15.086Z,8.03
2017-11-08T01:59:41.275Z,7.50
2017-11-08T02:02:09.097Z,7.73
2017-11-08T02:04:35.285Z,8.10
2017-11-08T02:07:01.470Z,7.57
2017-11-08T02:09:28.455Z,8.20
2017-11-08T02:11:55.373Z,8.30
2017-11-08T02:14:21.544Z,7.93
2017-11-08T02:16:48.653Z,8.57
2017-11-08T02:19:15.641Z,7.53
2017-11-08T02:21:42.586Z,9.30
2017-11-08T02:24:09.555Z,9.17
2017-11-08T02:26:37.439Z,8.37
2017-11-08T02:29:03.614Z,9.00
2017-11-08T02:31:29.809Z,8.57
2017-11-08T02:33:55.986Z,8.40
2017-11-08T02:36:22.173Z,8.40
2017-11-08T02:38:49.117Z,8.67
2017-11-08T02:41:20.249Z,9.67
2017-11-08T02:43:47.189Z,9.87
2017-11-08T02:46:19.678Z,8.40
2017-11-08T02:48:46.859Z,9.33
2017-11-08T02:51:13.060Z,9.67
2017-11-08T02:53:39.480Z,9.43
2017-11-08T02:56:05.686Z,10.73
2017-11-08T02:58:31.906Z,9.80
2017-11-08T03:00:58.106Z,11.47
2017-11-08T03:03:24.290Z,11.13
2017-11-08T03:05:50.519Z,9.37
2017-11-08T03:08:16.734Z,10.40
2017-11-08T03:10:42.934Z,10.87
2017-11-08T03:13:09.879Z,11.20
2017-11-08T03:15:36.857Z,10.80
2017-11-08T03:18:03.777Z,10.50
2017-11-08T03:20:29.989Z,9.77
2017-11-08T03:22:56.189Z,11.10
2017-11-08T03:25:22.357Z,10.50
2017-11-08T03:27:48.577Z,12.70
2017-11-08T03:30:15.662Z,11.10
2017-11-08T03:32:41.861Z,10.90
2017-11-08T03:35:08.203Z,11.50
2017-11-08T03:37:34.445Z,11.33
2017-11-08T03:40:00.633Z,14.50
2017-11-08T03:42:27.542Z,13.20
2017-11-08T03:44:53.984Z,11.80
2017-11-08T03:47:20.198Z,12.80
2017-11-08T03:49:48.166Z,13.27
2017-11-08T03:52:15.229Z,14.20
2017-11-08T03:54:41.397Z,13.10
2017-11-08T03:57:08.342Z,13.10
2017-11-08T03:59:34.557Z,13.53
2017-11-08T04:02:00.746Z,13.50
2017-11-08T04:04:26.963Z,12.60
2017-11-08T04:06:53.905Z,12.33
2017-11-08T04:09:20.105Z,14.27
2017-11-08T04:11:46.297Z,15.50
2017-11-08T04:14:12.509Z,14.30
2017-11-08T04:16:38.688Z,12.90
2017-11-08T04:19:04.963Z,14.70
2017-11-08T04:21:31.147Z,15.70
2017-11-08T04:23:57.376Z,16.23
2017-11-08T04:26:23.553Z,17.33
2017-11-08T04:28:50.589Z,14.73
2017-11-08T04:31:16.791Z,15.33
2017-11-08T04:33:43.014Z,16.50
2017-11-08T04:36:09.208Z,15.57
2017-11-08T04:38:35.390Z,16.73
2017-11-08T04:41:02.313Z,17.60
2017-11-08T04:43:28.541Z,18.13
2017-11-08T04:45:55.488Z,17.30
2017-11-08T04:48:21.654Z,18.77
2017-11-08T04:50:49.560Z,19.13
2017-11-08T04:53:16.838Z,19.70
2017-11-08T04:55:43.029Z,21.20
2017-11-08T04:58:09.399Z,20.47
2017-11-08T05:00:35.613Z,21.17
2017-11-08T05:03:01.841Z,20.13
2017-11-08T05:05:28.060Z,21.77
2017-11-08T05:07:54.253Z,20.70
2017-11-08T05:10:20.462Z,19.70
2017-11-08T05:12:47.527Z,20.87
2017-11-08T05:15:13.735Z,20.93
2017-11-08T05:17:39.928Z,21.60
2017-11-08T05:20:06.868Z,21.03
2017-11-08T05:22:33.810Z,22.37
2017-11-08T05:25:00.030Z,20.70
2017-11-08T05:27:26.241Z,21.53
2017-11-08T05:29:52.428Z,21.63
2017-11-08T05:32:19.392Z,21.20
2017-11-08T05:34:45.625Z,23.47
2017-11-08T05:37:12.541Z,22.90
2017-11-08T05:39:38.714Z,22.67
2017-11-08T05:42:05.650Z,23.90
2017-11-08T05:44:31.852Z,22.47
2017-11-08T05:46:58.081Z,21.57
2017-11-08T05:49:24.322Z,24.33
2017-11-08T05:51:50.749Z,24.73
2017-11-08T05:54:16.935Z,25.40
2017-11-08T05:56:43.900Z,23.80
2017-11-08T05:59:10.126Z,23.40
2017-11-08T06:01:36.338Z,25.17
2017-11-08T06:04:02.581Z,23.00
2017-11-08T06:06:28.752Z,22.90
2017-11-08T06:08:54.906Z,22.90
2017-11-08T06:11:21.089Z,25.67
2017-11-08T06:13:48.029Z,24.60
2017-11-08T06:16:14.949Z,23.20
2017-11-08T06:18:41.132Z,21.43
2017-11-08T06:21:08.046Z,26.03
2017-11-08T06:23:34.228Z,22.07
2017-11-08T06:26:00.410Z,23.13
2017-11-08T06:28:28.070Z,25.97
2017-11-08T06:30:54.262Z,24.33
2017-11-08T06:33:20.481Z,26.13
2017-11-08T06:35:47.393Z,22.87
2017-11-08T06:38:13.600Z,24.60
2017-11-08T06:40:39.813Z,23.80
2017-11-08T06:43:06.061Z,24.50
2017-11-08T06:45:32.301Z,21.87
2017-11-08T06:47:58.513Z,25.30
2017-11-08T06:50:24.736Z,24.77
2017-11-08T06:52:51.023Z,24.63
2017-11-08T06:55:17.228Z,24.77
2017-11-08T06:57:43.415Z,24.67
2017-11-08T07:00:09.614Z,24.53
2017-11-08T07:02:35.809Z,25.07
2017-11-08T07:05:02.020Z,24.73
2017-11-08T07:07:28.981Z,26.50
2017-11-08T07:09:55.910Z,24.70
2017-11-08T07:12:22.086Z,25.83
2017-11-08T07:14:49.002Z,25.07
2017-11-08T07:17:15.201Z,25.53
2017-11-08T07:19:41.389Z,26.03
2017-11-08T07:22:07.588Z,27.10
2017-11-08T07:24:33.898Z,26.83
2017-11-08T07:27:00.078Z,26.00
2017-11-08T07:29:27.009Z,26.80
2017-11-08T07:31:53.260Z,26.27
2017-11-08T07:34:20.198Z,25.80
2017-11-08T07:36:46.380Z,28.10
2017-11-08T07:39:12.637Z,27.93
2017-11-08T07:41:38.857Z,29.23
2017-11-08T07:44:05.069Z,29.73
2017-11-08T07:46:32.001Z,28.80
2017-11-08T07:48:58.188Z,28.53
2017-11-08T07:51:24.417Z,30.40
2017-11-08T07:53:50.706Z,33.67
2017-11-08T07:56:19.781Z,31.47
2017-11-08T07:58:45.976Z,30.50
2017-11-08T08:01:12.212Z,30.07
2017-11-08T08:03:38.402Z,32.17
2017-11-08T08:06:04.593Z,32.03
2017-11-08T08:08:30.839Z,31.50
2017-11-08T08:11:03.220Z,31.03
2017-11-08T08:13:29.453Z,34.77
2017-11-08T08:15:56.438Z,31.73
2017-11-08T08:18:23.371Z,30.83
2017-11-08T08:20:49.549Z,32.03
2017-11-08T08:23:15.753Z,33.77
2017-11-08T08:25:42.915Z,31.10
2017-11-08T08:28:09.845Z,32.03
2017-11-08T08:30:36.073Z,32.30
2017-11-08T08:33:02.264Z,30.90
2017-11-08T08:35:28.433Z,30.73
2017-11-08T08:37:54.655Z,32.43
2017-11-08T08:40:20.869Z,35.17
2017-11-08T08:42:47.041Z,31.33
2017-11-08T08:45:13.237Z,36.03
2017-11-08T08:47:39.425Z,34.20
2017-11-08T08:50:05.601Z,34.30
2017-11-08T08:52:31.796Z,35.73
2017-11-08T08:54:59.150Z,35.67
2017-11-08T08:57:25.346Z,33.87
2017-11-08T08:59:51.569Z,35.57
2017-11-08T09:02:17.768Z,33.87
2017-11-08T09:04:43.969Z,35.07
2017-11-08T09:07:10.252Z,37.60
2017-11-08T09:09:37.156Z,39.70
2017-11-08T09:12:03.808Z,40.47
2017-11-08T09:14:30.878Z,38.20
2017-11-08T09:16:57.804Z,37.87
2017-11-08T09:19:23.980Z,38.77
2017-11-08T09:21:50.897Z,39.70
2017-11-08T09:24:18.096Z,41.07
2017-11-08T09:26:44.293Z,41.50
2017-11-08T09:29:16.509Z,38.63
2017-11-08T09:31:42.706Z,44.80
2017-11-08T09:34:09.648Z,41.70
2017-11-08T09:36:35.891Z,37.30
2017-11-08T09:39:02.821Z,38.40
2017-11-08T09:41:31.017Z,39.23
2017-11-08T09:43:57.237Z,38.47
2017-11-08T09:46:24.337Z,41.30
2017-11-08T09:48:50.529Z,39.47
2017-11-08T09:51:16.761Z,42.73
2017-11-08T09:53:44.418Z,41.80
2017-11-08T09:56:10.762Z,40.13
2017-11-08T09:58:36.955Z,41.57
2017-11-08T10:01:09.954Z,43.03
2017-11-08T10:03:36.150Z,39.93
2017-11-08T10:06:03.114Z,41.70
2017-11-08T10:08:29.340Z,41.90
2017-11-08T10:11:02.471Z,42.20
2017-11-08T10:16:02.330Z,38.90
2017-11-08T10:18:28.551Z,42.50
2017-11-08T10:20:54.721Z,42.57
2017-11-08T10:23:24.633Z,44.70
2017-11-08T10:25:51.642Z,43.27
2017-11-08T10:28:18.522Z,41.70
2017-11-08T10:30:44.705Z,41.87
2017-11-08T10:33:11.633Z,41.77
2017-11-08T10:35:38.553Z,42.80
2017-11-08T10:38:04.745Z,41.77
2017-11-08T10:40:30.936Z,43.07
2017-11-08T10:42:57.103Z,42.00
2017-11-08T10:45:23.326Z,43.23
2017-11-08T10:47:49.526Z,42.97
2017-11-08T10:50:15.747Z,43.10
2017-11-08T10:52:44.927Z,44.40
2017-11-08T10:55:11.299Z,40.97
2017-11-08T10:57:40.514Z,45.43
2017-11-08T11:00:08.540Z,43.47
2017-11-08T11:02:35.541Z,42.90
2017-11-08T11:05:01.741Z,44.93
2017-11-08T11:07:27.922Z,44.40
2017-11-08T11:09:57.022Z,41.97
2017-11-08T11:12:23.213Z,45.00
2017-11-08T11:14:49.393Z,38.93
2017-11-08T11:17:15.638Z,42.40
2017-11-08T11:19:46.911Z,43.63
2017-11-08T11:22:15.015Z,43.30
2017-11-08T11:24:41.966Z,40.90
2017-11-08T11:27:11.718Z,47.53
2017-11-08T11:29:37.916Z,43.40
2017-11-08T11:32:04.859Z,44.00
2017-11-08T11:34:31.793Z,45.57
2017-11-08T11:36:57.981Z,44.43
2017-11-08T11:39:24.227Z,44.87
2017-11-08T11:41:52.283Z,43.60
2017-11-08T11:44:19.211Z,42.67
2017-11-08T11:46:46.186Z,44.63
2017-11-08T11:49:12.408Z,43.17
2017-11-08T11:51:38.639Z,41.17
2017-11-08T11:54:05.591Z,42.87
2017-11-08T11:56:32.541Z,43.83
2017-11-08T11:58:58.838Z,42.87
2017-11-08T12:01:25.090Z,41.33
2017-11-08T12:03:52.024Z,44.60
2017-11-08T12:06:18.253Z,42.23
2017-11-08T12:08:44.494Z,41.57
2017-11-08T12:11:10.694Z,39.60
2017-11-08T12:13:36.890Z,38.93
2017-11-08T12:16:03.094Z,38.67
2017-11-08T12:18:29.296Z,40.00
2017-11-08T12:20:55.497Z,36.10
2017-11-08T12:23:22.444Z,39.47
2017-11-08T12:25:48.613Z,40.27
2017-11-08T12:28:17.780Z,41.93
2017-11-08T12:30:44.007Z,40.13
2017-11-08T12:33:10.955Z,38.63
2017-11-08T12:35:37.125Z,40.70
2017-11-08T12:38:03.341Z,38.73
2017-11-08T12:40:29.521Z,37.63
2017-11-08T12:42:59.522Z,35.40
2017-11-08T12:45:25.720Z,39.20
2017-11-08T12:47:51.901Z,37.20
2017-11-08T12:50:18.818Z,34.80
2017-11-08T12:52:45.051Z,37.70
2017-11-08T12:55:11.960Z,36.27
2017-11-08T12:57:38.141Z,37.87
2017-11-08T13:00:04.471Z,37.13
2017-11-08T13:02:30.687Z,34.33
2017-11-08T13:04:56.888Z,33.90
2017-11-08T13:07:23.137Z,32.93
2017-11-08T13:09:49.314Z,33.90
2017-11-08T13:12:16.277Z,33.23
2017-11-08T13:14:42.459Z,31.97
2017-11-08T13:17:08.670Z,31.67
2017-11-08T13:19:34.846Z,31.30
2017-11-08T13:22:01.122Z,32.17
2017-11-08T13:24:27.307Z,29.97
2017-11-08T13:26:53.520Z,30.13
2017-11-08T13:29:19.734Z,28.67
2017-11-08T13:31:45.910Z,30.00
2017-11-08T13:34:12.121Z,27.87
2017-11-08T13:36:38.336Z,30.00
2017-11-08T13:39:06.370Z,30.00
2017-11-08T13:41:32.560Z,27.80
2017-11-08T13:43:58.766Z,28.63
2017-11-08T13:46:25.000Z,27.30
2017-11-08T13:48:51.207Z,26.97
2017-11-08T13:51:17.419Z,25.80
2017-11-08T13:53:43.656Z,26.03
2017-11-08T13:56:09.882Z,27.20
2017-11-08T13:58:36.162Z,28.50
2017-11-08T14:01:03.356Z,25.37
2017-11-08T14:03:29.594Z,25.60
2017-11-08T14:05:55.813Z,30.10
2017-11-08T14:08:22.176Z,27.07
2017-11-08T14:10:48.388Z,28.10
2017-11-08T14:13:14.605Z,27.90
2017-11-08T14:15:41.539Z,27.70
2017-11-08T14:18:08.488Z,28.63
2017-11-08T14:20:34.685Z,26.80
2017-11-08T14:23:00.897Z,29.20
2017-11-08T14:25:27.131Z,29.87
2017-11-08T14:27:53.315Z,29.40
2017-11-08T14:30:19.523Z,28.57
2017-11-08T14:32:45.767Z,28.00
2017-11-08T14:35:12.017Z,30.20
2017-11-08T14:37:38.257Z,30.90
2017-11-08T14:40:04.469Z,30.10
2017-11-08T14:42:35.798Z,30.30
2017-11-08T14:45:02.049Z,29.90
2017-11-08T14:47:28.247Z,30.77
2017-11-08T14:50:01.630Z,31.73
2017-11-08T14:52:28.547Z,29.67
2017-11-08T14:54:54.804Z,29.30
2017-11-08T14:57:21.075Z,31.20
2017-11-08T14:59:47.285Z,29.00
2017-11-08T15:02:13.639Z,30.90
2017-11-08T15:04:39.898Z,29.07
2017-11-08T15:07:06.097Z,30.57
2017-11-08T15:09:33.274Z,31.40
2017-11-08T15:11:59.573Z,31.60
2017-11-08T15:14:26.530Z,32.07
2017-11-08T15:16:53.519Z,31.27
2017-11-08T15:19:19.818Z,32.23
2017-11-08T15:21:46.021Z,31.63
2017-11-08T15:24:12.306Z,30.97
2017-11-08T15:26:38.579Z,33.30
2017-11-08T15:29:04.835Z,32.60
2017-11-08T15:31:31.822Z,33.03
2017-11-08T15:33:58.111Z,32.77
2017-11-08T15:36:24.320Z,33.10
2017-11-08T15:38:50.615Z,33.73
2017-11-08T15:41:18.677Z,33.00
2017-11-08T15:43:45.635Z,33.00
2017-11-08T15:46:12.918Z,31.50
2017-11-08T15:48:39.227Z,33.07
2017-11-08T15:51:05.475Z,32.13
2017-11-08T15:53:32.466Z,31.93
2017-11-08T15:55:58.762Z,34.97
2017-11-08T15:58:24.982Z,32.67
2017-11-08T16:00:51.921Z,32.17
2017-11-08T16:03:18.235Z,34.43
2017-11-08T16:05:44.415Z,33.50
2017-11-08T16:08:17.330Z,35.40
2017-11-08T16:10:43.589Z,32.40
2017-11-08T16:13:09.798Z,33.37
2017-11-08T16:15:36.027Z,32.60
2017-11-08T16:18:02.257Z,33.07
2017-11-08T16:20:28.465Z,34.47
2017-11-08T16:22:55.415Z,33.43
2017-11-08T16:25:22.381Z,34.47
2017-11-08T16:27:49.318Z,33.53
2017-11-08T16:30:15.581Z,35.77
2017-11-08T16:32:41.869Z,36.57
2017-11-08T16:35:08.129Z,35.83
2017-11-08T16:37:34.368Z,32.93
2017-11-08T16:40:01.385Z,33.73
2017-11-08T16:42:27.570Z,33.53
2017-11-08T16:44:53.836Z,34.10
2017-11-08T16:47:20.106Z,34.80
2017-11-08T16:49:47.094Z,33.53
2017-11-08T16:52:13.389Z,35.37
2017-11-08T16:54:40.358Z,31.67
2017-11-08T16:57:07.270Z,32.00
2017-11-08T16:59:33.485Z,32.50
2017-11-08T17:01:59.779Z,33.00
2017-11-08T17:04:26.975Z,30.70
2017-11-08T17:06:53.266Z,32.90
2017-11-08T17:09:19.543Z,33.67
2017-11-08T17:11:45.787Z,33.77
2017-11-08T17:14:11.983Z,34.03
2017-11-08T17:16:38.377Z,32.30
2017-11-08T17:19:05.406Z,34.10
2017-11-08T17:21:31.668Z,35.00
2017-11-08T17:23:57.926Z,36.57
2017-11-08T17:26:24.115Z,34.07
2017-11-08T17:28:50.280Z,35.20
2017-11-08T17:31:16.553Z,35.47
2017-11-08T17:33:42.735Z,35.97
2017-11-08T17:36:08.914Z,38.10
2017-11-08T17:38:35.868Z,37.10
2017-11-08T17:41:02.066Z,38.00
2017-11-08T17:43:28.330Z,37.13
2017-11-08T17:45:54.671Z,35.83
2017-11-08T17:48:21.603Z,36.23
2017-11-08T17:50:47.808Z,37.07
2017-11-08T17:53:14.009Z,35.77
2017-11-08T17:55:40.170Z,34.23
2017-11-08T17:58:06.448Z,35.33
2017-11-08T18:00:33.441Z,34.23
2017-11-08T18:02:59.734Z,36.20
2017-11-08T18:05:26.929Z,40.73
2017-11-08T18:07:53.170Z,38.10
2017-11-08T18:10:19.342Z,37.00
2017-11-08T18:12:45.565Z,38.40
2017-11-08T18:15:12.541Z,37.77
2017-11-08T18:17:39.460Z,36.93
2017-11-08T18:20:05.638Z,36.13
2017-11-08T18:22:32.021Z,38.00
2017-11-08T18:24:58.202Z,38.13
2017-11-08T18:27:25.122Z,37.33
2017-11-08T18:29:51.305Z,37.90
2017-11-08T18:32:17.511Z,37.47
2017-11-08T18:34:43.693Z,36.80
2017-11-08T18:37:09.871Z,37.70
2017-11-08T18:39:36.047Z,37.90
2017-11-08T18:42:02.314Z,38.87
2017-11-08T18:44:28.663Z,39.23
2017-11-08T18:46:54.841Z,38.03
2017-11-08T18:49:21.778Z,36.60
2017-11-08T18:51:49.609Z,36.80
2017-11-08T18:54:15.785Z,38.00
2017-11-08T18:56:42.711Z,38.07
2017-11-08T18:59:08.917Z,38.63
2017-11-08T19:01:35.125Z,38.60
2017-11-08T19:04:01.310Z,37.67
2017-11-08T19:06:27.569Z,38.00
2017-11-08T19:08:54.498Z,39.07
2017-11-08T19:11:20.702Z,39.90
2017-11-08T19:13:46.937Z,39.00
2017-11-08T19:16:13.128Z,37.83
2017-11-08T19:18:40.040Z,41.10
2017-11-08T19:21:06.257Z,37.50
2017-11-08T19:23:32.434Z,37.03
2017-11-08T19:25:58.630Z,40.23
2017-11-08T19:28:26.349Z,37.00
2017-11-08T19:30:53.283Z,37.87
2017-11-08T19:33:20.216Z,36.23
2017-11-08T19:35:48.005Z,36.00
2017-11-08T19:38:14.950Z,36.07
2017-11-08T19:40:41.892Z,37.67
2017-11-08T19:43:08.101Z,38.90
2017-11-08T19:45:34.310Z,36.87
2017-11-08T19:48:00.523Z,37.30
2017-11-08T19:50:27.443Z,37.50
2017-11-08T19:52:53.652Z,39.50
2017-11-08T19:55:19.859Z,41.37
2017-11-08T19:57:46.066Z,38.57
2017-11-08T20:00:12.235Z,36.40
2017-11-08T20:02:38.446Z,36.17
2017-11-08T20:05:05.394Z,39.97
2017-11-08T20:07:32.579Z,37.30
2017-11-08T20:09:58.874Z,39.40
2017-11-08T20:12:25.106Z,39.40
2017-11-08T20:14:51.302Z,42.40
2017-11-08T20:17:17.568Z,36.80
2017-11-08T20:19:43.789Z,37.67
2017-11-08T20:22:09.978Z,36.90
2017-11-08T20:24:36.900Z,39.77
2017-11-08T20:27:03.860Z,39.03
2017-11-08T20:29:30.804Z,39.50
2017-11-08T20:31:56.986Z,40.80
2017-11-08T20:34:23.221Z,40.27
2017-11-08T20:36:49.415Z,39.93
2017-11-08T20:39:16.334Z,39.20
2017-11-08T20:41:42.550Z,39.27
2017-11-08T20:44:08.741Z,42.00
2017-11-08T20:46:35.735Z,38.73
2017-11-08T20:49:02.019Z,40.83
2017-11-08T20:51:28.383Z,40.80
2017-11-08T20:53:55.472Z,42.67
2017-11-08T20:56:21.726Z,37.87
2017-11-08T20:58:47.999Z,41.70
2017-11-08T21:01:14.291Z,41.33
2017-11-08T21:03:41.473Z,42.30
2017-11-08T21:06:08.431Z,40.50
2017-11-08T21:08:34.844Z,41.43
2017-11-08T21:11:01.904Z,40.60
2017-11-08T21:13:28.866Z,40.77
2017-11-08T21:15:55.830Z,43.00
2017-11-08T21:18:22.843Z,40.90
2017-11-08T21:20:49.809Z,41.83
2017-11-08T21:23:16.790Z,44.87
2017-11-08T21:25:43.005Z,42.00
2017-11-08T21:28:09.946Z,40.73
2017-11-08T21:30:36.858Z,40.87
2017-11-08T21:33:03.043Z,42.20
2017-11-08T21:35:29.990Z,43.13
2017-11-08T21:37:56.214Z,40.87
2017-11-08T21:40:24.065Z,41.00
2017-11-08T21:42:50.270Z,41.67
2017-11-08T21:45:16.458Z,43.07
2017-11-08T21:47:43.393Z,40.73
2017-11-08T21:50:09.566Z,44.60
2017-11-08T21:52:36.496Z,42.13
2017-11-08T21:55:02.723Z,43.60
2017-11-08T21:57:28.940Z,42.80
2017-11-08T21:59:55.129Z,41.70
2017-11-08T22:02:21.322Z,42.80
2017-11-08T22:04:48.254Z,42.67
2017-11-08T22:07:14.458Z,42.43
2017-11-08T22:09:40.885Z,42.17
2017-11-08T22:12:07.060Z,40.80
2017-11-08T22:14:33.243Z,43.00
2017-11-08T22:16:59.446Z,42.60
2017-11-08T22:19:25.615Z,41.93
2017-11-08T22:21:51.847Z,41.80
2017-11-08T22:24:18.120Z,43.00
2017-11-08T22:26:44.294Z,39.73
2017-11-08T22:29:11.233Z,43.30
2017-11-08T22:31:37.442Z,40.50
2017-11-08T22:34:03.633Z,42.80
2017-11-08T22:36:29.814Z,39.97
2017-11-08T22:38:56.029Z,41.77
2017-11-08T22:41:22.201Z,42.67
2017-11-08T22:43:49.138Z,41.33
2017-11-08T22:46:16.179Z,42.83
2017-11-08T22:48:42.330Z,41.97
2017-11-08T22:51:09.262Z,42.63
2017-11-08T22:53:35.511Z,41.73
2017-11-08T22:56:01.712Z,42.57
2017-11-08T22:58:27.889Z,43.77
2017-11-08T23:00:54.071Z,40.17
2017-11-08T23:03:20.262Z,41.00
2017-11-08T23:05:46.432Z,42.30
2017-11-08T23:08:12.615Z,44.03
2017-11-08T23:10:38.900Z,44.03
2017-11-08T23:13:05.075Z,44.73
2017-11-08T23:15:31.259Z,43.70
2017-11-08T23:17:57.450Z,42.47
2017-11-08T23:20:23.630Z,42.63
2017-11-08T23:22:49.834Z,41.03
2017-11-08T23:25:16.759Z,40.33
2017-11-08T23:27:42.942Z,44.33
2017-11-08T23:30:09.872Z,40.63
2017-11-08T23:32:36.074Z,42.10
2017-11-08T23:35:02.262Z,43.30
2017-11-08T23:37:28.447Z,42.33
2017-11-08T23:39:54.621Z,40.10
2017-11-08T23:42:20.829Z,42.13
2017-11-08T23:44:47.050Z,39.43
2017-11-08T23:47:13.243Z,41.80
2017-11-08T23:49:39.441Z,43.40
2017-11-08T23:52:06.365Z,42.93
2017-11-08T23:54:34.397Z,43.50
2017-11-08T23:57:00.594Z,43.47
2017-11-08T23:59:28.446Z,42.40
